sensor_id;sensor_type;location;lat;lon;timestamp;temperature;humidity
10447;DHT22;5271;44.422;26.092;2023-02-04T00:02:04;9.50;85.30
10447;DHT22;5271;44.422;26.092;2023-02-04T00:04:30;9.50;85.20
10447;DHT22;5271;44.422;26.092;2023-02-04T00:06:57;9.50;85.50
10447;DHT22;5271;44.422;26.092;2023-02-04T00:09:24;9.50;86.00
10447;DHT22;5271;44.422;26.092;2023-02-04T00:11:52;9.40;85.60
10447;DHT22;5271;44.422;26.092;2023-02-04T00:14:19;9.50;85.80
10447;DHT22;5271;44.422;26.092;2023-02-04T00:16:46;9.40;86.00
10447;DHT22;5271;44.422;26.092;2023-02-04T00:19:13;9.40;86.10
10447;DHT22;5271;44.422;26.092;2023-02-04T00:21:41;9.40;86.20
10447;DHT22;5271;44.422;26.092;2023-02-04T00:24:08;9.40;86.30
10447;DHT22;5271;44.422;26.092;2023-02-04T00:26:35;9.40;86.50
10447;DHT22;5271;44.422;26.092;2023-02-04T00:29:03;9.40;86.70
10447;DHT22;5271;44.422;26.092;2023-02-04T00:31:30;9.40;87.20
10447;DHT22;5271;44.422;26.092;2023-02-04T00:33:57;9.50;86.90
10447;DHT22;5271;44.422;26.092;2023-02-04T00:36:24;9.40;87.00
10447;DHT22;5271;44.422;26.092;2023-02-04T00:38:51;9.40;87.00
10447;DHT22;5271;44.422;26.092;2023-02-04T00:41:18;9.40;87.00
10447;DHT22;5271;44.422;26.092;2023-02-04T00:43:45;9.40;87.00
10447;DHT22;5271;44.422;26.092;2023-02-04T00:46:13;9.40;87.30
10447;DHT22;5271;44.422;26.092;2023-02-04T00:48:40;9.40;87.20
10447;DHT22;5271;44.422;26.092;2023-02-04T00:51:07;9.50;87.20
10447;DHT22;5271;44.422;26.092;2023-02-04T00:53:34;9.50;87.00
10447;DHT22;5271;44.422;26.092;2023-02-04T00:56:00;9.50;87.60
10447;DHT22;5271;44.422;26.092;2023-02-04T00:58:27;9.40;87.50
10447;DHT22;5271;44.422;26.092;2023-02-04T01:00:54;9.40;87.60
10447;DHT22;5271;44.422;26.092;2023-02-04T01:03:22;9.40;87.90
10447;DHT22;5271;44.422;26.092;2023-02-04T01:05:49;9.40;88.00
10447;DHT22;5271;44.422;26.092;2023-02-04T01:08:16;9.40;88.10
10447;DHT22;5271;44.422;26.092;2023-02-04T01:10:43;9.40;88.30
10447;DHT22;5271;44.422;26.092;2023-02-04T01:13:10;9.30;88.40
10447;DHT22;5271;44.422;26.092;2023-02-04T01:15:37;9.30;88.60
10447;DHT22;5271;44.422;26.092;2023-02-04T01:18:03;9.30;88.40
10447;DHT22;5271;44.422;26.092;2023-02-04T01:20:32;9.30;88.70
10447;DHT22;5271;44.422;26.092;2023-02-04T01:22:59;9.30;88.80
10447;DHT22;5271;44.422;26.092;2023-02-04T01:25:25;9.30;88.90
10447;DHT22;5271;44.422;26.092;2023-02-04T01:27:52;9.30;88.80
10447;DHT22;5271;44.422;26.092;2023-02-04T01:30:19;9.30;88.90
10447;DHT22;5271;44.422;26.092;2023-02-04T01:32:46;9.30;89.40
10447;DHT22;5271;44.422;26.092;2023-02-04T01:35:13;9.30;89.60
10447;DHT22;5271;44.422;26.092;2023-02-04T01:37:41;9.30;89.70
10447;DHT22;5271;44.422;26.092;2023-02-04T01:40:09;9.30;90.00
10447;DHT22;5271;44.422;26.092;2023-02-04T01:42:37;9.30;89.80
10447;DHT22;5271;44.422;26.092;2023-02-04T01:45:04;9.30;90.00
10447;DHT22;5271;44.422;26.092;2023-02-04T01:47:31;9.30;89.90
10447;DHT22;5271;44.422;26.092;2023-02-04T01:49:58;9.30;90.10
10447;DHT22;5271;44.422;26.092;2023-02-04T01:52:27;9.30;90.10
10447;DHT22;5271;44.422;26.092;2023-02-04T01:54:58;9.30;90.10
10447;DHT22;5271;44.422;26.092;2023-02-04T01:57:25;9.30;90.10
10447;DHT22;5271;44.422;26.092;2023-02-04T01:59:54;9.30;90.40
10447;DHT22;5271;44.422;26.092;2023-02-04T02:02:42;9.30;90.20
10447;DHT22;5271;44.422;26.092;2023-02-04T02:05:10;9.40;90.20
10447;DHT22;5271;44.422;26.092;2023-02-04T02:07:38;9.40;90.10
10447;DHT22;5271;44.422;26.092;2023-02-04T02:10:10;9.40;90.20
10447;DHT22;5271;44.422;26.092;2023-02-04T02:12:38;9.30;90.30
10447;DHT22;5271;44.422;26.092;2023-02-04T02:15:06;9.30;90.50
10447;DHT22;5271;44.422;26.092;2023-02-04T02:17:33;9.30;90.60
10447;DHT22;5271;44.422;26.092;2023-02-04T02:20:00;9.30;90.50
10447;DHT22;5271;44.422;26.092;2023-02-04T02:22:29;9.40;90.50
10447;DHT22;5271;44.422;26.092;2023-02-04T02:24:59;9.40;90.80
10447;DHT22;5271;44.422;26.092;2023-02-04T02:27:26;9.40;90.70
10447;DHT22;5271;44.422;26.092;2023-02-04T02:29:53;9.40;90.90
10447;DHT22;5271;44.422;26.092;2023-02-04T02:32:20;9.30;90.90
10447;DHT22;5271;44.422;26.092;2023-02-04T02:34:46;9.30;91.00
10447;DHT22;5271;44.422;26.092;2023-02-04T02:37:13;9.40;91.10
10447;DHT22;5271;44.422;26.092;2023-02-04T02:39:43;9.30;91.20
10447;DHT22;5271;44.422;26.092;2023-02-04T02:42:14;9.30;91.40
10447;DHT22;5271;44.422;26.092;2023-02-04T02:44:42;9.30;91.50
10447;DHT22;5271;44.422;26.092;2023-02-04T02:47:12;9.40;91.60
10447;DHT22;5271;44.422;26.092;2023-02-04T02:49:39;9.40;91.60
10447;DHT22;5271;44.422;26.092;2023-02-04T02:52:09;9.40;91.70
10447;DHT22;5271;44.422;26.092;2023-02-04T02:54:36;9.40;91.80
10447;DHT22;5271;44.422;26.092;2023-02-04T02:57:11;9.30;91.90
10447;DHT22;5271;44.422;26.092;2023-02-04T02:59:39;9.40;92.10
10447;DHT22;5271;44.422;26.092;2023-02-04T03:02:07;9.30;92.30
10447;DHT22;5271;44.422;26.092;2023-02-04T03:04:38;9.30;92.30
10447;DHT22;5271;44.422;26.092;2023-02-04T03:07:06;9.30;92.30
10447;DHT22;5271;44.422;26.092;2023-02-04T03:09:33;9.40;92.10
10447;DHT22;5271;44.422;26.092;2023-02-04T03:12:01;9.40;91.90
10447;DHT22;5271;44.422;26.092;2023-02-04T03:14:31;9.50;91.90
10447;DHT22;5271;44.422;26.092;2023-02-04T03:16:59;9.50;91.70
10447;DHT22;5271;44.422;26.092;2023-02-04T03:19:28;9.40;91.60
10447;DHT22;5271;44.422;26.092;2023-02-04T03:21:55;9.30;91.60
10447;DHT22;5271;44.422;26.092;2023-02-04T03:24:23;9.20;91.70
10447;DHT22;5271;44.422;26.092;2023-02-04T03:26:50;9.20;91.70
10447;DHT22;5271;44.422;26.092;2023-02-04T03:29:17;9.10;91.80
10447;DHT22;5271;44.422;26.092;2023-02-04T03:31:46;9.10;91.80
10447;DHT22;5271;44.422;26.092;2023-02-04T03:34:12;9.10;91.80
10447;DHT22;5271;44.422;26.092;2023-02-04T03:36:39;9.10;91.80
10447;DHT22;5271;44.422;26.092;2023-02-04T03:39:06;9.10;91.80
10447;DHT22;5271;44.422;26.092;2023-02-04T03:41:33;9.10;91.80
10447;DHT22;5271;44.422;26.092;2023-02-04T03:44:00;9.10;91.80
10447;DHT22;5271;44.422;26.092;2023-02-04T03:46:27;9.10;92.00
10447;DHT22;5271;44.422;26.092;2023-02-04T03:48:55;9.10;92.30
10447;DHT22;5271;44.422;26.092;2023-02-04T03:51:22;9.20;92.40
10447;DHT22;5271;44.422;26.092;2023-02-04T03:53:49;9.20;92.40
10447;DHT22;5271;44.422;26.092;2023-02-04T03:56:16;9.20;92.50
10447;DHT22;5271;44.422;26.092;2023-02-04T03:58:42;9.20;92.70
10447;DHT22;5271;44.422;26.092;2023-02-04T04:01:09;9.20;92.60
10447;DHT22;5271;44.422;26.092;2023-02-04T04:03:36;9.30;92.40
10447;DHT22;5271;44.422;26.092;2023-02-04T04:06:05;9.30;92.30
10447;DHT22;5271;44.422;26.092;2023-02-04T04:08:34;9.30;92.50
10447;DHT22;5271;44.422;26.092;2023-02-04T04:11:01;9.40;92.40
10447;DHT22;5271;44.422;26.092;2023-02-04T04:13:28;9.40;92.40
10447;DHT22;5271;44.422;26.092;2023-02-04T04:15:55;9.40;92.50
10447;DHT22;5271;44.422;26.092;2023-02-04T04:18:21;9.40;92.40
10447;DHT22;5271;44.422;26.092;2023-02-04T04:20:48;9.40;92.30
10447;DHT22;5271;44.422;26.092;2023-02-04T04:23:16;9.40;92.40
10447;DHT22;5271;44.422;26.092;2023-02-04T04:25:43;9.40;92.40
10447;DHT22;5271;44.422;26.092;2023-02-04T04:28:10;9.40;92.50
10447;DHT22;5271;44.422;26.092;2023-02-04T04:30:37;9.40;92.50
10447;DHT22;5271;44.422;26.092;2023-02-04T04:33:04;9.40;92.80
10447;DHT22;5271;44.422;26.092;2023-02-04T04:35:31;9.50;92.60
10447;DHT22;5271;44.422;26.092;2023-02-04T04:37:59;9.50;92.50
10447;DHT22;5271;44.422;26.092;2023-02-04T04:40:27;9.60;92.60
10447;DHT22;5271;44.422;26.092;2023-02-04T04:42:54;9.60;92.80
10447;DHT22;5271;44.422;26.092;2023-02-04T04:45:21;9.60;92.70
10447;DHT22;5271;44.422;26.092;2023-02-04T04:47:48;9.60;93.00
10447;DHT22;5271;44.422;26.092;2023-02-04T04:50:15;9.60;92.90
10447;DHT22;5271;44.422;26.092;2023-02-04T04:52:42;9.60;93.20
10447;DHT22;5271;44.422;26.092;2023-02-04T04:55:09;9.50;93.50
10447;DHT22;5271;44.422;26.092;2023-02-04T04:57:37;9.50;93.80
10447;DHT22;5271;44.422;26.092;2023-02-04T05:00:06;9.50;94.50
10447;DHT22;5271;44.422;26.092;2023-02-04T05:02:33;9.50;94.40
10447;DHT22;5271;44.422;26.092;2023-02-04T05:05:00;9.40;95.20
10447;DHT22;5271;44.422;26.092;2023-02-04T05:07:27;9.40;95.40
10447;DHT22;5271;44.422;26.092;2023-02-04T05:09:54;9.40;94.90
10447;DHT22;5271;44.422;26.092;2023-02-04T05:12:21;9.40;95.20
10447;DHT22;5271;44.422;26.092;2023-02-04T05:14:49;9.40;95.60
10447;DHT22;5271;44.422;26.092;2023-02-04T05:17:16;9.20;96.40
10447;DHT22;5271;44.422;26.092;2023-02-04T05:19:43;9.10;96.40
10447;DHT22;5271;44.422;26.092;2023-02-04T05:22:10;9.10;96.80
10447;DHT22;5271;44.422;26.092;2023-02-04T05:24:37;9.00;96.80
10447;DHT22;5271;44.422;26.092;2023-02-04T05:27:03;9.00;97.40
10447;DHT22;5271;44.422;26.092;2023-02-04T05:29:30;9.00;98.30
10447;DHT22;5271;44.422;26.092;2023-02-04T05:31:58;8.90;99.00
10447;DHT22;5271;44.422;26.092;2023-02-04T05:34:25;8.80;99.80
10447;DHT22;5271;44.422;26.092;2023-02-04T05:36:52;8.70;99.90
10447;DHT22;5271;44.422;26.092;2023-02-04T05:39:19;8.60;99.90
10447;DHT22;5271;44.422;26.092;2023-02-04T05:41:46;8.50;99.90
10447;DHT22;5271;44.422;26.092;2023-02-04T05:44:13;8.50;99.90
10447;DHT22;5271;44.422;26.092;2023-02-04T05:46:40;8.50;99.90
10447;DHT22;5271;44.422;26.092;2023-02-04T05:49:08;8.40;99.90
10447;DHT22;5271;44.422;26.092;2023-02-04T05:51:35;8.40;99.90
10447;DHT22;5271;44.422;26.092;2023-02-04T05:54:02;8.30;99.90
10447;DHT22;5271;44.422;26.092;2023-02-04T05:56:28;8.30;99.90
10447;DHT22;5271;44.422;26.092;2023-02-04T05:58:55;8.30;99.90
10447;DHT22;5271;44.422;26.092;2023-02-04T06:01:22;8.30;99.90
10447;DHT22;5271;44.422;26.092;2023-02-04T06:03:49;8.30;99.90
10447;DHT22;5271;44.422;26.092;2023-02-04T06:06:17;8.30;99.90
10447;DHT22;5271;44.422;26.092;2023-02-04T06:08:44;8.20;99.90
10447;DHT22;5271;44.422;26.092;2023-02-04T06:11:11;8.20;99.90
10447;DHT22;5271;44.422;26.092;2023-02-04T06:13:38;8.20;99.90
10447;DHT22;5271;44.422;26.092;2023-02-04T06:16:05;8.20;99.90
10447;DHT22;5271;44.422;26.092;2023-02-04T06:18:32;8.30;99.90
10447;DHT22;5271;44.422;26.092;2023-02-04T06:20:59;8.40;99.90
10447;DHT22;5271;44.422;26.092;2023-02-04T06:23:30;8.40;99.90
10447;DHT22;5271;44.422;26.092;2023-02-04T06:25:58;8.50;99.90
10447;DHT22;5271;44.422;26.092;2023-02-04T06:28:25;8.50;99.90
10447;DHT22;5271;44.422;26.092;2023-02-04T06:30:52;8.50;99.90
10447;DHT22;5271;44.422;26.092;2023-02-04T06:33:19;8.60;99.90
10447;DHT22;5271;44.422;26.092;2023-02-04T06:35:49;8.60;99.90
10447;DHT22;5271;44.422;26.092;2023-02-04T06:38:16;8.50;99.90
10447;DHT22;5271;44.422;26.092;2023-02-04T06:40:45;8.50;99.90
10447;DHT22;5271;44.422;26.092;2023-02-04T06:43:13;8.50;99.90
10447;DHT22;5271;44.422;26.092;2023-02-04T06:45:40;8.50;99.90
10447;DHT22;5271;44.422;26.092;2023-02-04T06:48:07;8.50;99.90
10447;DHT22;5271;44.422;26.092;2023-02-04T06:50:34;8.50;99.90
10447;DHT22;5271;44.422;26.092;2023-02-04T06:53:01;8.40;99.90
10447;DHT22;5271;44.422;26.092;2023-02-04T06:55:28;8.40;99.90
10447;DHT22;5271;44.422;26.092;2023-02-04T06:57:56;8.40;99.90
10447;DHT22;5271;44.422;26.092;2023-02-04T07:00:23;8.40;99.90
10447;DHT22;5271;44.422;26.092;2023-02-04T07:02:50;8.40;99.90
10447;DHT22;5271;44.422;26.092;2023-02-04T07:05:17;8.50;99.90
10447;DHT22;5271;44.422;26.092;2023-02-04T07:07:45;8.50;99.90
10447;DHT22;5271;44.422;26.092;2023-02-04T07:10:11;8.50;99.90
10447;DHT22;5271;44.422;26.092;2023-02-04T07:12:38;8.60;99.90
10447;DHT22;5271;44.422;26.092;2023-02-04T07:15:08;8.60;99.90
10447;DHT22;5271;44.422;26.092;2023-02-04T07:17:35;8.60;99.90
10447;DHT22;5271;44.422;26.092;2023-02-04T07:20:02;8.60;99.90
10447;DHT22;5271;44.422;26.092;2023-02-04T07:22:30;8.50;99.90
10447;DHT22;5271;44.422;26.092;2023-02-04T07:24:57;8.50;99.90
10447;DHT22;5271;44.422;26.092;2023-02-04T07:27:24;8.50;99.90
10447;DHT22;5271;44.422;26.092;2023-02-04T07:29:51;8.50;99.90
10447;DHT22;5271;44.422;26.092;2023-02-04T07:32:19;8.60;99.90
10447;DHT22;5271;44.422;26.092;2023-02-04T07:34:46;8.60;99.90
10447;DHT22;5271;44.422;26.092;2023-02-04T07:37:13;8.60;99.90
10447;DHT22;5271;44.422;26.092;2023-02-04T07:39:40;8.60;99.90
10447;DHT22;5271;44.422;26.092;2023-02-04T07:42:07;8.60;99.90
10447;DHT22;5271;44.422;26.092;2023-02-04T07:44:34;8.60;99.90
10447;DHT22;5271;44.422;26.092;2023-02-04T07:47:02;8.50;99.90
10447;DHT22;5271;44.422;26.092;2023-02-04T07:49:30;8.50;99.90
10447;DHT22;5271;44.422;26.092;2023-02-04T07:51:57;8.50;99.90
10447;DHT22;5271;44.422;26.092;2023-02-04T07:54:24;8.60;99.90
10447;DHT22;5271;44.422;26.092;2023-02-04T07:56:50;8.60;99.90
10447;DHT22;5271;44.422;26.092;2023-02-04T07:59:17;8.60;99.90
10447;DHT22;5271;44.422;26.092;2023-02-04T08:01:44;8.60;99.90
10447;DHT22;5271;44.422;26.092;2023-02-04T08:04:12;8.70;99.90
10447;DHT22;5271;44.422;26.092;2023-02-04T08:06:40;8.60;99.90
10447;DHT22;5271;44.422;26.092;2023-02-04T08:09:07;8.70;99.90
10447;DHT22;5271;44.422;26.092;2023-02-04T08:11:34;8.80;99.90
10447;DHT22;5271;44.422;26.092;2023-02-04T08:14:01;8.80;99.90
10447;DHT22;5271;44.422;26.092;2023-02-04T08:16:27;8.90;99.90
10447;DHT22;5271;44.422;26.092;2023-02-04T08:18:54;8.90;99.90
10447;DHT22;5271;44.422;26.092;2023-02-04T08:21:21;8.90;99.90
10447;DHT22;5271;44.422;26.092;2023-02-04T08:23:49;9.00;99.90
10447;DHT22;5271;44.422;26.092;2023-02-04T08:26:16;9.00;99.90
10447;DHT22;5271;44.422;26.092;2023-02-04T08:28:43;9.20;99.90
10447;DHT22;5271;44.422;26.092;2023-02-04T08:31:10;9.20;99.90
10447;DHT22;5271;44.422;26.092;2023-02-04T08:33:37;9.20;99.90
10447;DHT22;5271;44.422;26.092;2023-02-04T08:36:05;9.20;99.90
10447;DHT22;5271;44.422;26.092;2023-02-04T08:38:32;9.20;99.90
10447;DHT22;5271;44.422;26.092;2023-02-04T08:41:00;9.20;99.90
10447;DHT22;5271;44.422;26.092;2023-02-04T08:43:27;9.20;99.90
10447;DHT22;5271;44.422;26.092;2023-02-04T08:45:54;9.20;99.90
10447;DHT22;5271;44.422;26.092;2023-02-04T08:48:21;9.40;99.90
10447;DHT22;5271;44.422;26.092;2023-02-04T08:50:48;9.40;99.90
10447;DHT22;5271;44.422;26.092;2023-02-04T08:53:14;9.50;99.90
10447;DHT22;5271;44.422;26.092;2023-02-04T08:55:41;9.40;99.90
10447;DHT22;5271;44.422;26.092;2023-02-04T08:58:09;9.40;99.90
10447;DHT22;5271;44.422;26.092;2023-02-04T09:00:36;9.40;99.90
10447;DHT22;5271;44.422;26.092;2023-02-04T09:03:03;9.40;99.90
10447;DHT22;5271;44.422;26.092;2023-02-04T09:05:30;9.40;99.90
10447;DHT22;5271;44.422;26.092;2023-02-04T09:07:57;9.50;99.90
10447;DHT22;5271;44.422;26.092;2023-02-04T09:10:24;9.60;99.90
10447;DHT22;5271;44.422;26.092;2023-02-04T09:12:51;9.50;99.90
10447;DHT22;5271;44.422;26.092;2023-02-04T09:15:22;9.60;99.90
10447;DHT22;5271;44.422;26.092;2023-02-04T09:17:49;9.60;99.90
10447;DHT22;5271;44.422;26.092;2023-02-04T09:20:18;9.70;99.90
10447;DHT22;5271;44.422;26.092;2023-02-04T09:22:45;9.70;99.90
10447;DHT22;5271;44.422;26.092;2023-02-04T09:25:12;9.60;99.90
10447;DHT22;5271;44.422;26.092;2023-02-04T09:27:39;9.60;99.90
10447;DHT22;5271;44.422;26.092;2023-02-04T09:30:07;9.60;99.90
10447;DHT22;5271;44.422;26.092;2023-02-04T09:32:35;9.70;99.90
10447;DHT22;5271;44.422;26.092;2023-02-04T09:35:02;9.90;99.90
10447;DHT22;5271;44.422;26.092;2023-02-04T09:37:29;10.00;99.90
10447;DHT22;5271;44.422;26.092;2023-02-04T09:39:56;10.10;99.90
10447;DHT22;5271;44.422;26.092;2023-02-04T09:42:24;10.20;99.90
10447;DHT22;5271;44.422;26.092;2023-02-04T09:44:51;10.40;99.90
10447;DHT22;5271;44.422;26.092;2023-02-04T09:47:21;11.20;99.90
10447;DHT22;5271;44.422;26.092;2023-02-04T09:49:50;12.40;99.90
10447;DHT22;5271;44.422;26.092;2023-02-04T09:52:17;15.10;95.70
10447;DHT22;5271;44.422;26.092;2023-02-04T09:54:45;15.30;97.50
10447;DHT22;5271;44.422;26.092;2023-02-04T09:57:14;16.80;95.40
10447;DHT22;5271;44.422;26.092;2023-02-04T09:59:42;17.50;92.60
10447;DHT22;5271;44.422;26.092;2023-02-04T10:02:19;17.70;91.70
10447;DHT22;5271;44.422;26.092;2023-02-04T10:04:48;18.00;90.80
10447;DHT22;5271;44.422;26.092;2023-02-04T10:07:18;17.90;88.90
10447;DHT22;5271;44.422;26.092;2023-02-04T10:09:50;17.50;87.60
10447;DHT22;5271;44.422;26.092;2023-02-04T10:12:17;16.60;90.10
10447;DHT22;5271;44.422;26.092;2023-02-04T10:14:44;15.90;90.90
10447;DHT22;5271;44.422;26.092;2023-02-04T10:17:12;15.20;91.50
10447;DHT22;5271;44.422;26.092;2023-02-04T10:19:40;14.70;92.30
10447;DHT22;5271;44.422;26.092;2023-02-04T10:22:17;14.40;93.20
10447;DHT22;5271;44.422;26.092;2023-02-04T10:24:45;14.60;93.40
10447;DHT22;5271;44.422;26.092;2023-02-04T10:27:13;15.00;93.20
10447;DHT22;5271;44.422;26.092;2023-02-04T10:29:42;15.70;92.00
10447;DHT22;5271;44.422;26.092;2023-02-04T10:32:24;16.30;91.60
10447;DHT22;5271;44.422;26.092;2023-02-04T10:34:56;17.00;90.00
10447;DHT22;5271;44.422;26.092;2023-02-04T10:37:24;17.70;90.30
10447;DHT22;5271;44.422;26.092;2023-02-04T10:39:51;18.30;85.20
10447;DHT22;5271;44.422;26.092;2023-02-04T10:42:21;19.00;86.00
10447;DHT22;5271;44.422;26.092;2023-02-04T10:44:48;19.50;84.00
10447;DHT22;5271;44.422;26.092;2023-02-04T10:47:17;20.10;83.00
10447;DHT22;5271;44.422;26.092;2023-02-04T10:49:55;20.60;77.80
10447;DHT22;5271;44.422;26.092;2023-02-04T10:52:32;21.00;78.10
10447;DHT22;5271;44.422;26.092;2023-02-04T10:55:00;20.90;77.50
10447;DHT22;5271;44.422;26.092;2023-02-04T10:57:29;20.10;75.80
10447;DHT22;5271;44.422;26.092;2023-02-04T10:59:57;18.80;77.80
10447;DHT22;5271;44.422;26.092;2023-02-04T11:02:36;17.90;80.60
10447;DHT22;5271;44.422;26.092;2023-02-04T11:05:11;17.10;82.40
10447;DHT22;5271;44.422;26.092;2023-02-04T11:07:40;16.80;84.80
10447;DHT22;5271;44.422;26.092;2023-02-04T11:10:12;17.00;84.70
10447;DHT22;5271;44.422;26.092;2023-02-04T11:12:42;16.70;83.80
10447;DHT22;5271;44.422;26.092;2023-02-04T11:15:44;16.20;85.20
10447;DHT22;5271;44.422;26.092;2023-02-04T11:18:25;15.90;86.60
10447;DHT22;5271;44.422;26.092;2023-02-04T11:20:55;15.70;87.30
10447;DHT22;5271;44.422;26.092;2023-02-04T11:23:34;15.80;88.50
10447;DHT22;5271;44.422;26.092;2023-02-04T11:26:07;16.70;87.10
10447;DHT22;5271;44.422;26.092;2023-02-04T11:28:55;17.20;84.30
10447;DHT22;5271;44.422;26.092;2023-02-04T11:31:41;17.50;82.70
10447;DHT22;5271;44.422;26.092;2023-02-04T11:34:22;17.10;82.80
10447;DHT22;5271;44.422;26.092;2023-02-04T11:37:02;16.60;84.50
10447;DHT22;5271;44.422;26.092;2023-02-04T11:39:35;16.30;85.90
10447;DHT22;5271;44.422;26.092;2023-02-04T11:42:03;16.00;86.60
10447;DHT22;5271;44.422;26.092;2023-02-04T11:44:31;15.50;87.70
10447;DHT22;5271;44.422;26.092;2023-02-04T11:46:59;15.10;88.90
10447;DHT22;5271;44.422;26.092;2023-02-04T11:49:27;14.90;90.00
10447;DHT22;5271;44.422;26.092;2023-02-04T11:52:03;14.50;90.30
10447;DHT22;5271;44.422;26.092;2023-02-04T11:54:34;14.30;91.00
10447;DHT22;5271;44.422;26.092;2023-02-04T11:57:01;14.10;91.30
10447;DHT22;5271;44.422;26.092;2023-02-04T11:59:28;13.90;91.70
10447;DHT22;5271;44.422;26.092;2023-02-04T12:02:12;13.60;92.10
10447;DHT22;5271;44.422;26.092;2023-02-04T12:04:50;13.40;92.70
10447;DHT22;5271;44.422;26.092;2023-02-04T12:07:23;13.30;92.90
10447;DHT22;5271;44.422;26.092;2023-02-04T12:09:51;13.10;93.20
10447;DHT22;5271;44.422;26.092;2023-02-04T12:12:27;13.00;93.60
10447;DHT22;5271;44.422;26.092;2023-02-04T12:15:01;12.90;93.90
10447;DHT22;5271;44.422;26.092;2023-02-04T12:17:28;12.80;93.80
10447;DHT22;5271;44.422;26.092;2023-02-04T12:19:55;12.70;94.10
10447;DHT22;5271;44.422;26.092;2023-02-04T12:22:22;12.60;94.60
10447;DHT22;5271;44.422;26.092;2023-02-04T12:24:50;12.50;95.10
10447;DHT22;5271;44.422;26.092;2023-02-04T12:27:18;12.40;95.10
10447;DHT22;5271;44.422;26.092;2023-02-04T12:29:45;12.40;95.50
10447;DHT22;5271;44.422;26.092;2023-02-04T12:32:12;12.30;96.00
10447;DHT22;5271;44.422;26.092;2023-02-04T12:34:38;12.30;96.30
10447;DHT22;5271;44.422;26.092;2023-02-04T12:37:05;12.20;96.10
10447;DHT22;5271;44.422;26.092;2023-02-04T12:39:32;12.20;96.70
10447;DHT22;5271;44.422;26.092;2023-02-04T12:42:00;12.10;96.90
10447;DHT22;5271;44.422;26.092;2023-02-04T12:44:29;12.10;96.90
10447;DHT22;5271;44.422;26.092;2023-02-04T12:46:55;12.10;97.10
10447;DHT22;5271;44.422;26.092;2023-02-04T12:49:22;12.10;97.40
10447;DHT22;5271;44.422;26.092;2023-02-04T12:51:50;12.00;97.50
10447;DHT22;5271;44.422;26.092;2023-02-04T12:54:17;12.10;97.70
10447;DHT22;5271;44.422;26.092;2023-02-04T12:56:44;12.00;98.00
10447;DHT22;5271;44.422;26.092;2023-02-04T12:59:12;11.90;98.10
10447;DHT22;5271;44.422;26.092;2023-02-04T13:01:39;11.90;98.30
10447;DHT22;5271;44.422;26.092;2023-02-04T13:04:06;11.90;98.30
10447;DHT22;5271;44.422;26.092;2023-02-04T13:06:33;11.90;98.40
10447;DHT22;5271;44.422;26.092;2023-02-04T13:08:59;11.80;98.80
10447;DHT22;5271;44.422;26.092;2023-02-04T13:11:26;11.70;99.10
10447;DHT22;5271;44.422;26.092;2023-02-04T13:13:53;11.70;99.10
10447;DHT22;5271;44.422;26.092;2023-02-04T13:16:21;11.70;99.20
10447;DHT22;5271;44.422;26.092;2023-02-04T13:18:49;11.70;99.50
10447;DHT22;5271;44.422;26.092;2023-02-04T13:21:16;11.70;99.40
10447;DHT22;5271;44.422;26.092;2023-02-04T13:23:43;11.70;99.50
10447;DHT22;5271;44.422;26.092;2023-02-04T13:26:10;11.80;99.40
10447;DHT22;5271;44.422;26.092;2023-02-04T13:28:37;11.80;99.40
10447;DHT22;5271;44.422;26.092;2023-02-04T13:31:04;11.80;99.60
10447;DHT22;5271;44.422;26.092;2023-02-04T13:33:32;11.80;99.30
10447;DHT22;5271;44.422;26.092;2023-02-04T13:35:59;11.80;99.30
10447;DHT22;5271;44.422;26.092;2023-02-04T13:38:26;11.80;99.40
10447;DHT22;5271;44.422;26.092;2023-02-04T13:40:53;11.80;99.30
10447;DHT22;5271;44.422;26.092;2023-02-04T13:43:20;11.80;99.40
10447;DHT22;5271;44.422;26.092;2023-02-04T13:45:48;11.80;99.50
10447;DHT22;5271;44.422;26.092;2023-02-04T13:48:15;11.90;99.40
10447;DHT22;5271;44.422;26.092;2023-02-04T13:50:43;11.80;99.60
10447;DHT22;5271;44.422;26.092;2023-02-04T13:53:10;11.70;99.80
10447;DHT22;5271;44.422;26.092;2023-02-04T13:55:37;11.70;99.90
10447;DHT22;5271;44.422;26.092;2023-02-04T13:58:04;11.60;99.90
10447;DHT22;5271;44.422;26.092;2023-02-04T14:00:31;11.70;99.90
10447;DHT22;5271;44.422;26.092;2023-02-04T14:02:57;11.70;99.90
10447;DHT22;5271;44.422;26.092;2023-02-04T14:05:24;11.70;99.90
10447;DHT22;5271;44.422;26.092;2023-02-04T14:07:53;11.60;99.90
10447;DHT22;5271;44.422;26.092;2023-02-04T14:10:20;11.60;99.90
10447;DHT22;5271;44.422;26.092;2023-02-04T14:12:49;11.50;99.90
10447;DHT22;5271;44.422;26.092;2023-02-04T14:15:16;11.50;99.90
10447;DHT22;5271;44.422;26.092;2023-02-04T14:17:43;11.50;99.90
10447;DHT22;5271;44.422;26.092;2023-02-04T14:20:11;11.50;99.90
10447;DHT22;5271;44.422;26.092;2023-02-04T14:22:38;11.50;99.90
10447;DHT22;5271;44.422;26.092;2023-02-04T14:25:06;11.50;99.90
10447;DHT22;5271;44.422;26.092;2023-02-04T14:27:35;11.60;99.90
10447;DHT22;5271;44.422;26.092;2023-02-04T14:30:05;11.50;99.90
10447;DHT22;5271;44.422;26.092;2023-02-04T14:32:32;11.50;99.90
10447;DHT22;5271;44.422;26.092;2023-02-04T14:34:59;11.50;99.90
10447;DHT22;5271;44.422;26.092;2023-02-04T14:37:26;11.50;99.90
10447;DHT22;5271;44.422;26.092;2023-02-04T14:39:53;11.50;99.90
10447;DHT22;5271;44.422;26.092;2023-02-04T14:42:22;11.60;99.90
10447;DHT22;5271;44.422;26.092;2023-02-04T14:44:49;11.50;99.90
10447;DHT22;5271;44.422;26.092;2023-02-04T14:47:16;11.50;99.90
10447;DHT22;5271;44.422;26.092;2023-02-04T14:49:42;11.50;99.90
10447;DHT22;5271;44.422;26.092;2023-02-04T14:52:09;11.40;99.90
10447;DHT22;5271;44.422;26.092;2023-02-04T14:54:37;11.40;99.90
10447;DHT22;5271;44.422;26.092;2023-02-04T14:57:04;11.40;99.90
10447;DHT22;5271;44.422;26.092;2023-02-04T14:59:32;11.40;99.90
10447;DHT22;5271;44.422;26.092;2023-02-04T15:01:59;11.40;99.90
10447;DHT22;5271;44.422;26.092;2023-02-04T15:04:26;11.40;99.90
10447;DHT22;5271;44.422;26.092;2023-02-04T15:06:53;11.40;99.90
10447;DHT22;5271;44.422;26.092;2023-02-04T15:09:22;11.30;99.90
10447;DHT22;5271;44.422;26.092;2023-02-04T15:11:49;11.30;99.90
10447;DHT22;5271;44.422;26.092;2023-02-04T15:14:16;11.30;99.90
10447;DHT22;5271;44.422;26.092;2023-02-04T15:16:45;11.30;99.90
10447;DHT22;5271;44.422;26.092;2023-02-04T15:19:14;11.30;99.90
10447;DHT22;5271;44.422;26.092;2023-02-04T15:21:41;11.30;99.90
10447;DHT22;5271;44.422;26.092;2023-02-04T15:24:08;11.30;99.90
10447;DHT22;5271;44.422;26.092;2023-02-04T15:26:35;11.30;99.90
10447;DHT22;5271;44.422;26.092;2023-02-04T15:29:02;11.20;99.90
10447;DHT22;5271;44.422;26.092;2023-02-04T15:31:29;11.20;99.90
10447;DHT22;5271;44.422;26.092;2023-02-04T15:33:57;11.20;99.90
10447;DHT22;5271;44.422;26.092;2023-02-04T15:36:24;11.10;99.90
10447;DHT22;5271;44.422;26.092;2023-02-04T15:38:51;11.10;99.90
10447;DHT22;5271;44.422;26.092;2023-02-04T15:41:18;11.10;99.90
10447;DHT22;5271;44.422;26.092;2023-02-04T15:43:45;11.10;99.90
10447;DHT22;5271;44.422;26.092;2023-02-04T15:46:13;11.10;99.90